createdAt,value
2019-03-04T00:00:49.851Z,94683.2
2019-03-04T00:01:52.292Z,94679
2019-03-04T00:02:54.722Z,94677.1
2019-03-04T00:03:57.156Z,94675.3
2019-03-04T00:04:59.309Z,94670.6
2019-03-04T00:06:01.735Z,94669.7
2019-03-04T00:07:03.886Z,94670
2019-03-04T00:08:06.055Z,94667
2019-03-04T00:09:08.490Z,94662.4
2019-03-04T00:10:10.629Z,94661.3
2019-03-04T00:11:13.054Z,94661.4
2019-03-04T00:12:15.487Z,94656.1
2019-03-04T00:13:17.669Z,94658.2
2019-03-04T00:14:19.559Z,94656.9
2019-03-04T00:15:21.714Z,94655.1
2019-03-04T00:16:23.881Z,94647.3
2019-03-04T00:17:26.328Z,94652.1
2019-03-04T00:18:28.754Z,94654.3
2019-03-04T00:19:31.184Z,94654.3
2019-03-04T00:20:33.038Z,94654.2
2019-03-04T00:21:35.465Z,94649.9
2019-03-04T00:22:37.634Z,94642.7
2019-03-04T00:23:39.813Z,94650.3
2019-03-04T00:24:41.699Z,94647.9
2019-03-04T00:25:44.134Z,94649.6
2019-03-04T00:26:46.615Z,94647.9
2019-03-04T00:27:49.029Z,94647.6
2019-03-04T00:28:51.451Z,94642.9
2019-03-04T00:29:53.916Z,94642.2
2019-03-04T00:30:55.808Z,94634
2019-03-04T00:31:58.241Z,94637
2019-03-04T00:33:00.379Z,94639.1
2019-03-04T00:34:02.529Z,94627.6
2019-03-04T00:35:04.962Z,94626.2
2019-03-04T00:36:07.098Z,94627.8
2019-03-04T00:37:09.525Z,94631.5
2019-03-04T00:38:11.949Z,94627
2019-03-04T00:39:14.377Z,94625.7
2019-03-04T00:40:16.276Z,94628.3
2019-03-04T00:41:18.707Z,94627.3
2019-03-04T00:42:21.140Z,94624.3
2019-03-04T00:43:23.560Z,94619.7
2019-03-04T00:44:25.463Z,94622.2
2019-03-04T00:45:27.888Z,94617.8
2019-03-04T00:46:30.049Z,94614.9
2019-03-04T00:47:32.187Z,94615.1
2019-03-04T00:48:34.617Z,94613.3
2019-03-04T00:49:36.756Z,94617.4
2019-03-04T00:50:39.221Z,94612.3
2019-03-04T00:51:41.662Z,94610.9
2019-03-04T00:52:44.088Z,94607.7
2019-03-04T00:53:46.529Z,94611.5
2019-03-04T00:54:48.964Z,94608
2019-03-04T00:55:51.128Z,94614.3
2019-03-04T00:56:53.566Z,94610.7
2019-03-04T00:57:55.997Z,94609
2019-03-04T00:58:58.422Z,94608.3
2019-03-04T01:00:00.497Z,94610.9
2019-03-04T01:01:02.664Z,94606.3
2019-03-04T01:02:05.118Z,94607
2019-03-04T01:03:07.536Z,94607.9
2019-03-04T01:04:09.683Z,94605.5
2019-03-04T01:05:11.816Z,94604.4
2019-03-04T01:06:13.959Z,94598.2
2019-03-04T01:07:16.120Z,94598.5
2019-03-04T01:08:18.276Z,94602.9
2019-03-04T01:09:20.437Z,94597.4
2019-03-04T01:10:22.866Z,94597.4
2019-03-04T01:11:25.303Z,94591.7
2019-03-04T01:12:27.448Z,94591.8
2019-03-04T01:13:29.620Z,94590.4
2019-03-04T01:14:32.051Z,94588.4
2019-03-04T01:15:34.476Z,94585.6
2019-03-04T01:16:36.920Z,94589.8
2019-03-04T01:17:39.061Z,94585.6
2019-03-04T01:18:41.493Z,94589.7
2019-03-04T01:19:43.349Z,94588.6
2019-03-04T01:20:45.786Z,94584.7
2019-03-04T01:21:47.662Z,94579.5
2019-03-04T01:22:49.798Z,94578.8
2019-03-04T01:23:53.061Z,94576.7
2019-03-04T01:24:55.490Z,94577.5
2019-03-04T01:25:57.928Z,94575.9
2019-03-04T01:26:59.537Z,94578.7
2019-03-04T01:28:01.961Z,94578.7
2019-03-04T01:29:04.137Z,94581.4
2019-03-04T01:30:06.023Z,94576.7
2019-03-04T01:31:08.175Z,94572.4
2019-03-04T01:32:10.599Z,94574.8
2019-03-04T01:33:12.727Z,94572.7
2019-03-04T01:34:14.857Z,94573.3
2019-03-04T01:35:17.293Z,94571.8
2019-03-04T01:36:19.710Z,94573
2019-03-04T01:37:21.630Z,94574.4
2019-03-04T01:38:23.788Z,94571.4
2019-03-04T01:39:25.951Z,94569.7
2019-03-04T01:40:28.381Z,94565.2
2019-03-04T01:41:30.819Z,94560.4
2019-03-04T01:42:33.252Z,94558.3
2019-03-04T01:43:35.159Z,94556.3
2019-03-04T01:44:37.589Z,94557.9
2019-03-04T01:45:40.012Z,94552.9
2019-03-04T01:46:42.160Z,94551.3
2019-03-04T01:47:44.318Z,94551.6
2019-03-04T01:48:46.751Z,94548.5
2019-03-04T01:49:48.921Z,94545.1
2019-03-04T01:50:51.092Z,94543.7
2019-03-04T01:51:53.516Z,94536.1
2019-03-04T01:52:55.698Z,94530.1
2019-03-04T01:53:58.132Z,94526.5
2019-03-04T01:55:00.789Z,94523.6
2019-03-04T01:56:03.222Z,94518.8
2019-03-04T01:57:05.641Z,94520.5
2019-03-04T01:58:08.072Z,94514.6
2019-03-04T01:59:10.520Z,94510.9
2019-03-04T02:00:12.943Z,94510.4
2019-03-04T02:01:15.371Z,94507.8
2019-03-04T02:02:17.861Z,94501.3
2019-03-04T02:03:20.282Z,94503.6
2019-03-04T02:04:22.169Z,94499.2
2019-03-04T02:05:24.601Z,94499.6
2019-03-04T02:06:26.758Z,94496.7
2019-03-04T02:07:29.183Z,94491.7
2019-03-04T02:08:31.328Z,94489.6
2019-03-04T02:09:33.462Z,94490.1
2019-03-04T02:10:35.609Z,94488.8
2019-03-04T02:11:38.029Z,94491.3
2019-03-04T02:12:40.168Z,94487.9
2019-03-04T02:13:42.593Z,94487.6
2019-03-04T02:14:45.018Z,94481.3
2019-03-04T02:15:47.440Z,94481.5
2019-03-04T02:16:49.606Z,94478.7
2019-03-04T02:17:51.740Z,94482
2019-03-04T02:18:54.191Z,94479
2019-03-04T02:19:56.610Z,94475
2019-03-04T02:20:59.025Z,94472.4
2019-03-04T02:22:01.459Z,94471.8
2019-03-04T02:23:03.631Z,94466.7
2019-03-04T02:24:06.069Z,94460.5
2019-03-04T02:25:08.221Z,94461.5
2019-03-04T02:26:10.094Z,94458.5
2019-03-04T02:27:12.518Z,94455.9
2019-03-04T02:28:14.948Z,94451.9
2019-03-04T02:29:17.373Z,94447
2019-03-04T02:30:19.799Z,94446.8
2019-03-04T02:31:22.226Z,94445.7
2019-03-04T02:32:24.371Z,94444.7
2019-03-04T02:33:26.816Z,94442
2019-03-04T02:34:29.238Z,94446.5
2019-03-04T02:35:31.396Z,94442.3
2019-03-04T02:36:33.832Z,94440.5
2019-03-04T02:37:36.249Z,94435
2019-03-04T02:38:38.739Z,94437.9
2019-03-04T02:39:41.156Z,94434.1
2019-03-04T02:40:43.591Z,94431.5
2019-03-04T02:41:46.025Z,94429.8
2019-03-04T02:42:48.192Z,94428.8
2019-03-04T02:43:50.628Z,94430.9
2019-03-04T02:44:52.771Z,94425.4
2019-03-04T02:45:54.928Z,94424.8
2019-03-04T02:46:57.371Z,94424.4
2019-03-04T02:47:59.240Z,94419.8
2019-03-04T02:49:01.664Z,94421
2019-03-04T02:50:03.824Z,94413.5
2019-03-04T02:51:06.260Z,94411.3
2019-03-04T02:52:08.683Z,94408.8
2019-03-04T02:53:11.122Z,94404.2
2019-03-04T02:54:13.539Z,94409.7
2019-03-04T02:55:15.676Z,94405.1
2019-03-04T02:56:17.837Z,94403.8
2019-03-04T02:57:20.361Z,94401.2
2019-03-04T02:58:22.792Z,94399.1
2019-03-04T02:59:24.672Z,94401
2019-03-04T03:00:27.087Z,94398.1
2019-03-04T03:01:29.235Z,94399.7
2019-03-04T03:02:31.659Z,94398.4
2019-03-04T03:03:33.823Z,94395.4
2019-03-04T03:04:36.253Z,94392
2019-03-04T03:05:38.700Z,94386.4
2019-03-04T03:06:41.154Z,94386.1
2019-03-04T03:07:43.586Z,94381.7
2019-03-04T03:08:45.786Z,94377.9
2019-03-04T03:09:48.207Z,94370.9
2019-03-04T03:10:50.664Z,94373.5
2019-03-04T03:11:53.073Z,94374.8
2019-03-04T03:12:55.499Z,94370.5
2019-03-04T03:13:57.670Z,94370.3
2019-03-04T03:15:00.421Z,94368.5
2019-03-04T03:16:02.582Z,94367.3
2019-03-04T03:17:04.752Z,94361.7
2019-03-04T03:18:07.196Z,94357.5
2019-03-04T03:19:09.642Z,94351.5
2019-03-04T03:20:12.072Z,94349.5
2019-03-04T03:21:14.499Z,94351.3
2019-03-04T03:22:16.921Z,94347
2019-03-04T03:23:19.362Z,94350.1
2019-03-04T03:24:21.485Z,94346.1
2019-03-04T03:25:23.641Z,94339.1
2019-03-04T03:26:25.811Z,94337.9
2019-03-04T03:27:27.693Z,94338.6
2019-03-04T03:28:29.836Z,94344.4
2019-03-04T03:29:32.257Z,94342.9
2019-03-04T03:30:34.730Z,94340.9
2019-03-04T03:31:36.904Z,94341.4
2019-03-04T03:32:39.336Z,94340.2
2019-03-04T03:33:41.262Z,94332.4
2019-03-04T03:34:43.698Z,94331.6
2019-03-04T03:35:46.115Z,94328.6
2019-03-04T03:36:48.548Z,94324.4
2019-03-04T03:37:50.799Z,94328.6
2019-03-04T03:38:53.230Z,94328.6
2019-03-04T03:39:55.661Z,94321.3
2019-03-04T03:40:57.509Z,94321.8
2019-03-04T03:41:59.931Z,94323.5
2019-03-04T03:43:02.072Z,94319.4
2019-03-04T03:44:04.230Z,94314.7
2019-03-04T03:45:06.663Z,94320.5
2019-03-04T03:46:09.102Z,94313.4
2019-03-04T03:47:11.197Z,94312.2
2019-03-04T03:48:13.074Z,94318.3
2019-03-04T03:49:15.496Z,94312.9
2019-03-04T03:50:17.780Z,94310
2019-03-04T03:51:20.241Z,94315.3
2019-03-04T03:52:22.673Z,94306
2019-03-04T03:53:25.103Z,94302.5
2019-03-04T03:54:27.535Z,94298.9
2019-03-04T03:55:29.688Z,94300
2019-03-04T03:56:31.830Z,94297.7
2019-03-04T03:57:34.241Z,94302.8
2019-03-04T03:58:36.381Z,94296.7
2019-03-04T03:59:38.809Z,94290.4
2019-03-04T04:00:40.965Z,94288
2019-03-04T04:01:43.112Z,94286.3
2019-03-04T04:02:45.263Z,94282.1
2019-03-04T04:03:47.413Z,94280.6
2019-03-04T04:04:49.837Z,94278.9
2019-03-04T04:05:52.261Z,94268.7
2019-03-04T04:06:54.706Z,94266.7
2019-03-04T04:07:56.859Z,94266.8
2019-03-04T04:08:59.284Z,94263.3
2019-03-04T04:10:01.434Z,94261.4
2019-03-04T04:11:03.585Z,94262.5
2019-03-04T04:12:05.999Z,94257.2
2019-03-04T04:13:08.433Z,94259
2019-03-04T04:14:10.634Z,94260.4
2019-03-04T04:15:12.815Z,94257
2019-03-04T04:16:15.343Z,94257.1
2019-03-04T04:17:17.556Z,94254.5
2019-03-04T04:18:19.163Z,94250.6
2019-03-04T04:19:21.377Z,94252.9
2019-03-04T04:20:23.556Z,94258.2
2019-03-04T04:21:25.974Z,94249.2
2019-03-04T04:22:28.163Z,94242.2
2019-03-04T04:23:30.593Z,94239
2019-03-04T04:24:33.025Z,94235.6
2019-03-04T04:25:34.886Z,94230.6
2019-03-04T04:26:37.338Z,94222.6
2019-03-04T04:27:40.395Z,94215.2
2019-03-04T04:28:42.804Z,94220.4
2019-03-04T04:29:44.957Z,94218.5
2019-03-04T04:30:47.379Z,94218.1
2019-03-04T04:31:49.555Z,94210.2
2019-03-04T04:32:52.033Z,94211.5
2019-03-04T04:33:54.472Z,94206.5
2019-03-04T04:34:56.974Z,94208
2019-03-04T04:36:00.167Z,94202.6
2019-03-04T04:37:02.639Z,94209.2
2019-03-04T04:38:04.802Z,94209.2
2019-03-04T04:39:06.683Z,94205.9
2019-03-04T04:40:09.136Z,94207.2
2019-03-04T04:41:11.032Z,94212.4
2019-03-04T04:42:13.176Z,94209.3
2019-03-04T04:43:15.611Z,94202.6
2019-03-04T04:44:17.775Z,94203.1
2019-03-04T04:45:19.925Z,94200.6
2019-03-04T04:46:22.369Z,94205.1
2019-03-04T04:47:24.241Z,94195.3
2019-03-04T04:48:26.387Z,94198.1
2019-03-04T04:49:28.539Z,94202.8
2019-03-04T04:50:30.970Z,94200.3
2019-03-04T04:51:33.125Z,94191.4
2019-03-04T04:52:35.313Z,94197.6
2019-03-04T04:53:37.457Z,94183.8
2019-03-04T04:54:39.319Z,94185
2019-03-04T04:55:41.750Z,94181.6
2019-03-04T04:56:43.919Z,94184.8
2019-03-04T04:57:46.346Z,94177.9
2019-03-04T04:58:48.779Z,94175.5
2019-03-04T04:59:50.947Z,94177.5
2019-03-04T05:00:53.371Z,94169.9
2019-03-04T05:01:55.522Z,94167.1
2019-03-04T05:02:57.685Z,94167.3
2019-03-04T05:04:00.114Z,94164.8
2019-03-04T05:05:02.295Z,94161.4
2019-03-04T05:06:04.606Z,94159.7
2019-03-04T05:07:07.065Z,94159.5
2019-03-04T05:08:09.510Z,94158.8
2019-03-04T05:09:11.993Z,94157.2
2019-03-04T05:10:14.417Z,94153.1
2019-03-04T05:11:16.585Z,94155
2019-03-04T05:12:19.058Z,94149.2
2019-03-04T05:13:21.218Z,94146.3
2019-03-04T05:14:23.381Z,94143.6
2019-03-04T05:15:25.804Z,94150
2019-03-04T05:16:28.225Z,94145.1
2019-03-04T05:17:30.639Z,94146.4
2019-03-04T05:18:32.829Z,94144.8
2019-03-04T05:19:35.262Z,94144.7
2019-03-04T05:20:37.692Z,94140
2019-03-04T05:21:40.181Z,94139.5
2019-03-04T05:22:42.614Z,94140
2019-03-04T05:23:45.037Z,94134.4
2019-03-04T05:24:47.508Z,94134.9
2019-03-04T05:25:49.107Z,94140.4
2019-03-04T05:26:50.969Z,94143.5
2019-03-04T05:27:53.406Z,94144.4
2019-03-04T05:28:55.857Z,94147.6
2019-03-04T05:29:58.015Z,94145.6
2019-03-04T05:30:59.898Z,94137.6
2019-03-04T05:32:02.330Z,94142.3
2019-03-04T05:33:04.756Z,94136.5
2019-03-04T05:34:06.890Z,94133.3
2019-03-04T05:35:09.024Z,94128.5
2019-03-04T05:36:10.641Z,94131.2
2019-03-04T05:37:13.073Z,94128
2019-03-04T05:38:15.494Z,94125.5
2019-03-04T05:39:17.931Z,94123.9
2019-03-04T05:40:20.086Z,94121.4
2019-03-04T05:41:22.517Z,94120.8
2019-03-04T05:42:26.083Z,94124.3
2019-03-04T05:43:28.521Z,94120.3
2019-03-04T05:44:30.683Z,94115.5
2019-03-04T05:45:32.829Z,94112.3
2019-03-04T05:46:35.252Z,94108.7
2019-03-04T05:47:37.674Z,94108.2
2019-03-04T05:48:39.831Z,94103.5
2019-03-04T05:49:41.434Z,94104.3
2019-03-04T05:50:43.878Z,94097
2019-03-04T05:51:46.011Z,94102.8
2019-03-04T05:52:47.889Z,94100.9
2019-03-04T05:53:50.019Z,94098
2019-03-04T05:54:52.175Z,94096.9
2019-03-04T05:55:54.338Z,94092.8
2019-03-04T05:56:56.766Z,94096.5
2019-03-04T05:57:58.933Z,94090.2
2019-03-04T05:59:01.082Z,94093.9
2019-03-04T06:00:03.520Z,94090.9
2019-03-04T06:01:05.949Z,94095.2
2019-03-04T06:02:08.107Z,94088.3
2019-03-04T06:03:09.999Z,94086.8
2019-03-04T06:04:12.428Z,94088.7
2019-03-04T06:05:14.587Z,94089.9
2019-03-04T06:06:17.018Z,94088.1
2019-03-04T06:07:19.443Z,94088.5
2019-03-04T06:08:21.866Z,94088.9
2019-03-04T06:09:23.749Z,94082.5
2019-03-04T06:10:26.189Z,94082.4
2019-03-04T06:11:28.637Z,94077.4
2019-03-04T06:12:31.065Z,94076.2
2019-03-04T06:13:33.501Z,94076.2
2019-03-04T06:14:35.646Z,94075.5
2019-03-04T06:15:38.069Z,94080.1
2019-03-04T06:17:45.480Z,94078.9
2019-03-04T06:18:47.383Z,94073.4
2019-03-04T06:19:49.537Z,94074.8
2019-03-04T06:20:51.971Z,94075.8
2019-03-04T06:21:53.836Z,94072
2019-03-04T06:22:55.990Z,94065.5
2019-03-04T06:23:58.414Z,94069.4
2019-03-04T06:25:00.842Z,94067.3
2019-03-04T06:26:03.380Z,94066.3
2019-03-04T06:27:05.536Z,94064.6
2019-03-04T06:28:07.960Z,94064.5
2019-03-04T06:29:10.099Z,94061.6
2019-03-04T06:30:12.519Z,94062.9
2019-03-04T06:31:14.368Z,94056.4
2019-03-04T06:32:16.649Z,94054.8
2019-03-04T06:33:19.156Z,94050.5
2019-03-04T06:34:21.598Z,94050.5
2019-03-04T06:35:24.032Z,94050.3
2019-03-04T06:36:26.460Z,94045.7
2019-03-04T06:37:28.902Z,94038.9
2019-03-04T06:38:31.340Z,94040.8
2019-03-04T06:39:33.767Z,94040.4
2019-03-04T06:40:35.654Z,94036.4
2019-03-04T06:41:37.808Z,94032.4
2019-03-04T06:42:40.234Z,94034.5
2019-03-04T06:43:44.028Z,94029.8
2019-03-04T06:44:46.609Z,94028.3
2019-03-04T06:45:48.775Z,94026.8
2019-03-04T06:46:50.922Z,94024.4
2019-03-04T06:47:53.086Z,94020.5
2019-03-04T06:48:55.514Z,94018
2019-03-04T06:49:57.951Z,94015.1
2019-03-04T06:51:00.412Z,94012.5
2019-03-04T06:52:02.328Z,94009.3
2019-03-04T06:53:04.762Z,94009.4
2019-03-04T06:54:07.192Z,94009.3
2019-03-04T06:55:09.356Z,94005.1
2019-03-04T06:56:11.503Z,94002.2
2019-03-04T06:57:13.930Z,93994.1
2019-03-04T06:58:16.377Z,93992.7
2019-03-04T06:59:18.810Z,93994.2
2019-03-04T07:00:21.242Z,93996.3
2019-03-04T07:01:23.664Z,93991
2019-03-04T07:02:26.115Z,93981.3
2019-03-04T07:03:28.540Z,93977.7
2019-03-04T07:04:30.694Z,93974.4
2019-03-04T07:05:32.559Z,93974.8
2019-03-04T07:06:34.708Z,93980.4
2019-03-04T07:07:37.154Z,93968.8
2019-03-04T07:08:39.319Z,93975.8
2019-03-04T07:09:41.758Z,93971.7
2019-03-04T07:10:43.913Z,93972
2019-03-04T07:11:45.496Z,93971.4
2019-03-04T07:12:47.110Z,93967
2019-03-04T07:13:48.993Z,93964
2019-03-04T07:14:50.907Z,93962.4
2019-03-04T07:15:52.497Z,93961.5
2019-03-04T07:16:54.690Z,93963.1
2019-03-04T07:17:57.115Z,93958.9
2019-03-04T07:18:59.541Z,93957.3
2019-03-04T07:20:02.028Z,93957.8
2019-03-04T07:21:04.178Z,93947
2019-03-04T07:22:06.342Z,93959.2
2019-03-04T07:23:08.500Z,93953.5
2019-03-04T07:24:10.660Z,93947.3
2019-03-04T07:25:13.088Z,93945.5
2019-03-04T07:26:14.973Z,93945.2
2019-03-04T07:27:17.119Z,93944
2019-03-04T07:28:18.974Z,93944.2
2019-03-04T07:29:21.126Z,93949
2019-03-04T07:30:23.590Z,93945.8
2019-03-04T07:31:26.007Z,93937.5
2019-03-04T07:32:28.434Z,93939.6
2019-03-04T07:33:30.575Z,93940.3
2019-03-04T07:35:37.973Z,93938.7
2019-03-04T07:36:40.134Z,93931.8
2019-03-04T07:37:42.300Z,93926.7
2019-03-04T07:38:44.731Z,93925.3
2019-03-04T07:39:46.876Z,93931
2019-03-04T07:40:49.055Z,93933.7
2019-03-04T07:41:51.216Z,93931.7
2019-03-04T07:42:53.655Z,93927.7
2019-03-04T07:43:55.824Z,93924.9
2019-03-04T07:44:58.002Z,93929.7
2019-03-04T07:46:00.434Z,93923
2019-03-04T07:47:02.320Z,93924.1
2019-03-04T07:48:04.751Z,93922.1
2019-03-04T07:49:06.916Z,93916.2
2019-03-04T07:50:08.814Z,93913.2
2019-03-04T07:51:10.962Z,93908.7
2019-03-04T07:52:13.389Z,93911.1
2019-03-04T07:53:15.816Z,93910.8
2019-03-04T07:54:17.955Z,93911.9
2019-03-04T07:55:20.102Z,93911.3
2019-03-04T07:56:22.560Z,93910
2019-03-04T07:57:24.713Z,93911.3
2019-03-04T07:58:27.397Z,93911.5
2019-03-04T07:59:29.830Z,93911
2019-03-04T08:00:32.258Z,93909.7
2019-03-04T08:01:34.684Z,93912.1
2019-03-04T08:02:37.150Z,93910
2019-03-04T08:03:39.602Z,93910.6
2019-03-04T08:04:41.768Z,93913.5
2019-03-04T08:05:44.204Z,93910.8
2019-03-04T08:06:46.143Z,93913.4
2019-03-04T08:07:48.063Z,93907.2
2019-03-04T08:08:50.477Z,93903.8
2019-03-04T08:09:52.388Z,93906.6
2019-03-04T08:10:54.814Z,93901.7
2019-03-04T08:11:57.250Z,93900.8
2019-03-04T08:12:59.408Z,93906.6
2019-03-04T08:14:01.562Z,93905
2019-03-04T08:15:03.998Z,93903.8
2019-03-04T08:16:05.302Z,93904
2019-03-04T08:17:07.731Z,93904.1
2019-03-04T08:18:09.047Z,93902.8
2019-03-04T08:19:11.502Z,93900.7
2019-03-04T08:20:13.936Z,93910.7
2019-03-04T08:21:16.124Z,93906
2019-03-04T08:22:18.554Z,93909.2
2019-03-04T08:23:20.692Z,93902.7
2019-03-04T08:24:23.153Z,93903.6
2019-03-04T08:25:25.332Z,93903.8
2019-03-04T08:26:27.488Z,93905.9
2019-03-04T08:27:29.919Z,93908.5
2019-03-04T08:28:32.353Z,93909.9
2019-03-04T08:29:34.789Z,93912.6
2019-03-04T08:30:37.221Z,93915
2019-03-04T08:31:39.658Z,93909.8
2019-03-04T08:32:41.847Z,93903.6
2019-03-04T08:33:44.266Z,93898.1
2019-03-04T08:34:46.701Z,93894.1
2019-03-04T08:35:49.119Z,93900.4
2019-03-04T08:36:51.556Z,93908.9
2019-03-04T08:37:53.720Z,93914.5
2019-03-04T08:38:55.875Z,93912
2019-03-04T08:39:58.301Z,93910.6
2019-03-04T08:41:00.473Z,93911.4
2019-03-04T08:42:02.902Z,93912.9
2019-03-04T08:43:05.076Z,93913.2
2019-03-04T08:44:06.950Z,93908.4
2019-03-04T08:45:09.085Z,93907.3
2019-03-04T08:46:11.240Z,93915.8
2019-03-04T08:47:13.669Z,93922.6
2019-03-04T08:48:16.127Z,93919.3
2019-03-04T08:49:18.560Z,93929.8
2019-03-04T08:50:20.989Z,93929.6
2019-03-04T08:51:22.895Z,93926.4
2019-03-04T08:52:25.328Z,93921.5
2019-03-04T08:53:27.774Z,93921.7
2019-03-04T08:54:30.201Z,93920.1
2019-03-04T08:55:31.809Z,93923.4
2019-03-04T08:56:34.247Z,93921.2
2019-03-04T08:57:36.686Z,93929.9
2019-03-04T08:58:38.853Z,93937.7
2019-03-04T08:59:41.291Z,93949.3
2019-03-04T09:00:43.719Z,94016.5
2019-03-04T09:01:45.863Z,94077.7
2019-03-04T09:02:48.310Z,94080.9
2019-03-04T09:03:50.742Z,94053
2019-03-04T09:04:52.892Z,94060.2
2019-03-04T09:05:55.320Z,94061.9
2019-03-04T09:06:57.470Z,94040.2
2019-03-04T09:07:59.910Z,94033.5
2019-03-04T09:09:02.348Z,94031.1
2019-03-04T09:10:04.544Z,94035
2019-03-04T09:11:06.701Z,94054.3
2019-03-04T09:12:09.128Z,94048
2019-03-04T09:13:11.549Z,94059.7
2019-03-04T09:14:13.710Z,94048.3
2019-03-04T09:15:16.127Z,94046
2019-03-04T09:16:18.022Z,94056
2019-03-04T09:17:20.179Z,94049.2
2019-03-04T09:18:22.039Z,94042.2
2019-03-04T09:19:24.465Z,94041.6
2019-03-04T09:20:26.615Z,94028.3
2019-03-04T09:21:28.763Z,94033.3
2019-03-04T09:22:30.921Z,94033.6
2019-03-04T09:23:32.819Z,94030
2019-03-04T09:24:35.250Z,94023.7
2019-03-04T09:25:37.121Z,94031.8
2019-03-04T09:26:39.578Z,94023.6
2019-03-04T09:27:41.751Z,94019.6
2019-03-04T09:28:44.178Z,94011.6
2019-03-04T09:29:48.173Z,94016.9
2019-03-04T09:30:50.311Z,94002.3
2019-03-04T09:31:52.461Z,94016.2
2019-03-04T09:32:54.891Z,94011.3
2019-03-04T09:33:57.341Z,94002.8
2019-03-04T09:34:59.773Z,94003.7
2019-03-04T09:36:01.488Z,94011.3
2019-03-04T09:37:03.376Z,93994.3
2019-03-04T09:38:05.805Z,94003.6
2019-03-04T09:39:08.259Z,94000
2019-03-04T09:40:10.671Z,93994.5
2019-03-04T09:41:12.820Z,94014.9
2019-03-04T09:42:14.696Z,94011
2019-03-04T09:43:16.856Z,94001.1
2019-03-04T09:44:19.292Z,94015.2
2019-03-04T09:45:20.886Z,94005.3
2019-03-04T09:46:23.050Z,94005.5
2019-03-04T09:47:25.487Z,94021.1
2019-03-04T09:48:27.722Z,94003.7
2019-03-04T09:49:30.149Z,93996.1
2019-03-04T09:50:32.300Z,94007.8
2019-03-04T09:51:34.164Z,94013.9
2019-03-04T09:52:36.045Z,94017.5
2019-03-04T09:54:43.198Z,94014.9
2019-03-04T09:55:45.636Z,94025.5
2019-03-04T09:56:48.079Z,94006.4
2019-03-04T09:57:50.236Z,94009.1
2019-03-04T09:58:52.691Z,93993.5
2019-03-04T09:59:54.852Z,94005.3
2019-03-04T10:00:57.012Z,93995.9
2019-03-04T10:01:59.204Z,94010.2
2019-03-04T10:03:01.368Z,94005.2
2019-03-04T10:04:03.808Z,94000
2019-03-04T10:05:05.698Z,93991.7
2019-03-04T10:06:08.118Z,94014.3
2019-03-04T10:07:10.550Z,93992
2019-03-04T10:08:12.698Z,93998.7
2019-03-04T10:09:15.125Z,93998.1
2019-03-04T10:10:17.536Z,94018.7
2019-03-04T10:11:19.965Z,93988.2
2019-03-04T10:12:22.386Z,94009
2019-03-04T10:13:24.819Z,94006.8
2019-03-04T10:14:27.241Z,93993.8
2019-03-04T10:15:29.162Z,93996.7
2019-03-04T10:16:31.322Z,94007.1
2019-03-04T10:17:33.205Z,94013.4
2019-03-04T10:18:35.362Z,94017.5
2019-03-04T10:19:37.529Z,94021.3
2019-03-04T10:20:39.682Z,94018.7
2019-03-04T10:21:42.123Z,94030.5
2019-03-04T10:22:44.534Z,94025.2
2019-03-04T10:23:46.992Z,94020.1
2019-03-04T10:24:48.838Z,94028.4
2019-03-04T10:25:50.730Z,94024.5
2019-03-04T10:26:52.887Z,94015.9
2019-03-04T10:27:55.308Z,94036.1
2019-03-04T10:28:57.746Z,94022
2019-03-04T10:30:00.343Z,94031
2019-03-04T10:31:02.791Z,94037.7
2019-03-04T10:32:05.221Z,94044.9
2019-03-04T10:33:07.660Z,94055.3
2019-03-04T10:34:10.092Z,94046.3
2019-03-04T10:35:11.985Z,94041
2019-03-04T10:36:14.425Z,94054.4
2019-03-04T10:37:16.620Z,94047.5
2019-03-04T10:39:24.155Z,94046.7
2019-03-04T10:40:26.580Z,94045.3
2019-03-04T10:41:29.061Z,94048.7
2019-03-04T10:42:31.509Z,94053.1
2019-03-04T10:43:33.929Z,94051
2019-03-04T10:45:41.332Z,94038.9
2019-03-04T10:46:43.491Z,94039.2
2019-03-04T10:47:45.630Z,94026.1
2019-03-04T10:48:48.070Z,94059.7
2019-03-04T10:49:50.252Z,94052.9
2019-03-04T10:50:52.685Z,94048.6
2019-03-04T10:51:55.116Z,94052.7
2019-03-04T10:52:57.551Z,94062.5
2019-03-04T10:53:59.695Z,94065.8
2019-03-04T10:55:02.170Z,94053.6
2019-03-04T10:56:04.321Z,94061.8
2019-03-04T10:57:06.488Z,94069.2
2019-03-04T10:58:08.922Z,94054.4
2019-03-04T10:59:11.098Z,94077.7
2019-03-04T11:00:13.255Z,94068.8
2019-03-04T11:01:15.403Z,94073.6
2019-03-04T11:02:17.272Z,94073.4
2019-03-04T11:03:19.135Z,94082.1
2019-03-04T11:04:21.621Z,94087.6
2019-03-04T11:05:24.042Z,94084.2
2019-03-04T11:06:26.472Z,94099.6
2019-03-04T11:07:28.668Z,94073.3
2019-03-04T11:08:30.842Z,94093.8
2019-03-04T11:09:32.721Z,94079.8
2019-03-04T11:10:34.893Z,94091.3
2019-03-04T11:11:37.031Z,94100.2
2019-03-04T11:12:39.462Z,94077.7
2019-03-04T11:13:41.600Z,94095.9
2019-03-04T11:14:43.747Z,94086.4
2019-03-04T11:15:46.167Z,94089.4
2019-03-04T11:16:48.591Z,94089
2019-03-04T11:17:51.025Z,94080.9
2019-03-04T11:18:53.465Z,94088.6
2019-03-04T11:19:55.897Z,94100
2019-03-04T11:20:58.057Z,94095.2
2019-03-04T11:22:00.220Z,94104.6
2019-03-04T11:23:02.643Z,94116.6
2019-03-04T11:24:05.089Z,94097.2
2019-03-04T11:25:06.968Z,94100.9
2019-03-04T11:26:08.848Z,94120.2
2019-03-04T11:27:11.019Z,94108
2019-03-04T11:28:13.190Z,94121.9
2019-03-04T11:29:15.343Z,94122.3
2019-03-04T11:30:17.477Z,94135.4
2019-03-04T11:31:19.908Z,94140.8
2019-03-04T11:32:22.363Z,94136.9
2019-03-04T11:33:24.789Z,94134.9
2019-03-04T11:34:26.937Z,94140.9
2019-03-04T11:35:28.804Z,94142.1
2019-03-04T11:36:30.962Z,94143
2019-03-04T11:37:32.850Z,94141.4
2019-03-04T11:38:35.282Z,94150.3
2019-03-04T11:39:37.452Z,94169.6
2019-03-04T11:40:39.599Z,94183
2019-03-04T11:41:41.515Z,94182.5
2019-03-04T11:42:43.647Z,94184.5
2019-03-04T11:43:45.581Z,94192.4
2019-03-04T11:44:48.006Z,94191.9
2019-03-04T11:45:49.881Z,94201.7
2019-03-04T11:46:51.741Z,94208.4
2019-03-04T11:47:53.652Z,94203.3
2019-03-04T11:48:56.112Z,94220.9
2019-03-04T11:49:58.552Z,94211.9
2019-03-04T11:51:00.986Z,94221.9
2019-03-04T11:52:03.137Z,94225
2019-03-04T11:53:05.556Z,94235
2019-03-04T11:54:07.701Z,94230.4
2019-03-04T11:55:09.862Z,94228.4
2019-03-04T11:56:12.047Z,94218.5
2019-03-04T11:57:13.918Z,94225.1
2019-03-04T11:58:15.232Z,94224.9
2019-03-04T11:59:17.364Z,94237.1
2019-03-04T12:00:19.538Z,94225.6
2019-03-04T12:01:21.965Z,94219.4
2019-03-04T12:02:24.131Z,94235.5
2019-03-04T12:03:26.014Z,94230.6
2019-03-04T12:04:28.460Z,94234.2
2019-03-04T12:05:30.878Z,94240.6
2019-03-04T12:06:32.750Z,94229.8
2019-03-04T12:07:35.184Z,94238.4
2019-03-04T12:08:37.344Z,94239.8
2019-03-04T12:09:39.773Z,94249.4
2019-03-04T12:10:42.208Z,94265.9
2019-03-04T12:11:44.353Z,94243.5
2019-03-04T12:12:46.521Z,94245.6
2019-03-04T12:13:48.387Z,94254.5
2019-03-04T12:14:50.257Z,94251.3
2019-03-04T12:15:52.746Z,94264.9
2019-03-04T12:16:55.176Z,94264.6
2019-03-04T12:17:57.071Z,94271.7
2019-03-04T12:18:59.239Z,94261.8
2019-03-04T12:20:01.777Z,94269.1
2019-03-04T12:21:03.918Z,94233.3
2019-03-04T12:22:06.337Z,94269.4
2019-03-04T12:23:08.763Z,94273.4
2019-03-04T12:24:10.947Z,94283.8
2019-03-04T12:25:13.390Z,94283.1
2019-03-04T12:26:15.263Z,94285.9
2019-03-04T12:27:17.154Z,94278.1
2019-03-04T12:28:19.591Z,94294.6
2019-03-04T12:29:22.019Z,94287.3
2019-03-04T12:30:24.441Z,94278.6
2019-03-04T12:31:28.931Z,94272.4
2019-03-04T12:32:31.357Z,94278.5
2019-03-04T12:33:33.524Z,94284.1
2019-03-04T12:34:35.943Z,94291.4
2019-03-04T12:35:38.073Z,94291.9
2019-03-04T12:36:40.497Z,94295.9
2019-03-04T12:37:42.955Z,94310.2
2019-03-04T12:38:45.410Z,94299.1
2019-03-04T12:39:47.577Z,94294.9
2019-03-04T12:40:49.749Z,94304
2019-03-04T12:41:51.900Z,94292.9
2019-03-04T12:42:54.323Z,94298.1
2019-03-04T12:43:56.762Z,94298.6